Time,TemperatureF,DewpointF,PressureIn,WindDirection,WindDirectionDegrees,WindSpeedMPH,WindSpeedGustMPH,Humidity,HourlyPrecipIn,Conditions,Clouds,dailyrainin,SoftwareType,DateUTC
2013-07-31 00:00:00,68.3,63.6,22.39,ESE,122,1.0,7.0,85,0.00,,---,0.00,VWS V14.00,2013-07-31 04:00:00,
2013-07-31 00:01:00,68.3,63.6,22.39,ESE,121,4.0,7.0,85,0.00,,---,0.00,VWS V14.00,2013-07-31 04:01:00,
2013-07-31 00:02:00,68.3,63.6,22.39,ESE,121,2.0,7.0,85,0.00,,---,0.00,VWS V14.00,2013-07-31 04:02:00,
2013-07-31 00:03:00,68.3,63.6,22.39,ESE,121,2.0,7.0,85,0.00,,---,0.00,VWS V14.00,2013-07-31 04:03:00,
2013-07-31 00:08:00,68.3,63.3,22.39,SE,143,3.0,6.0,84,0.00,,---,0.00,VWS V14.00,2013-07-31 04:08:00,
2013-07-31 00:14:00,68.3,63.6,22.39,ESE,111,2.0,6.0,85,0.00,,---,0.00,VWS V14.00,2013-07-31 04:14:00,
2013-07-31 00:19:00,68.1,63.4,22.39,ESE,111,2.0,6.0,85,0.00,,---,0.00,VWS V14.00,2013-07-31 04:19:00,
2013-07-31 00:24:00,67.8,63.1,22.39,ESE,109,4.0,6.0,85,0.00,,---,0.00,VWS V14.00,2013-07-31 04:24:00,
2013-07-31 00:29:00,67.7,63.0,22.39,SSE,154,6.0,10.0,85,0.00,,---,0.00,VWS V14.00,2013-07-31 04:29:00,
2013-07-31 00:34:00,67.7,63.4,22.39,SSE,159,5.0,10.0,86,0.00,,---,0.00,VWS V14.00,2013-07-31 04:34:00,
2013-07-31 00:40:00,67.4,63.1,22.39,SSE,153,5.0,6.0,86,0.00,,---,0.00,VWS V14.00,2013-07-31 04:40:00,
2013-07-31 00:45:00,67.6,63.6,22.39,SE,129,3.0,8.0,87,0.00,,---,0.00,VWS V14.00,2013-07-31 04:45:00,
2013-07-31 00:50:00,67.4,63.1,22.39,ESE,115,5.0,8.0,86,0.00,,---,0.00,VWS V14.00,2013-07-31 04:50:00,
2013-07-31 00:55:00,67.3,63.0,22.39,ESE,123,5.0,8.0,86,0.00,,---,0.00,VWS V14.00,2013-07-31 04:55:00,
2013-07-31 01:00:00,67.5,63.2,22.39,SE,142,7.0,9.0,86,0.00,,---,0.00,VWS V14.00,2013-07-31 05:00:00,
2013-07-31 01:05:00,67.5,63.2,22.39,SE,143,2.0,10.0,86,0.00,,---,0.00,VWS V14.00,2013-07-31 05:05:00,
2013-07-31 01:10:00,67.4,63.1,22.39,ESE,109,3.0,5.0,86,0.00,,---,0.00,VWS V14.00,2013-07-31 05:10:00,
2013-07-31 01:16:00,67.6,63.3,22.39,SE,145,3.0,7.0,86,0.00,,---,0.00,VWS V14.00,2013-07-31 05:16:00,
2013-07-31 01:21:00,67.7,63.4,22.39,SE,132,4.0,9.0,86,0.00,,---,0.00,VWS V14.00,2013-07-31 05:21:00,
2013-07-31 01:26:00,67.7,63.4,22.39,SE,136,5.0,9.0,86,0.00,,---,0.00,VWS V14.00,2013-07-31 05:26:00,
2013-07-31 01:31:00,67.5,63.2,22.39,SSE,156,3.0,9.0,86,0.00,,---,0.00,VWS V14.00,2013-07-31 05:31:00,
2013-07-31 01:36:00,67.5,63.2,22.39,ESE,123,3.0,9.0,86,0.00,,---,0.00,VWS V14.00,2013-07-31 05:36:00,
2013-07-31 01:42:00,67.6,63.3,22.39,SE,127,5.0,5.0,86,0.00,,---,0.00,VWS V14.00,2013-07-31 05:42:00,
2013-07-31 01:47:00,67.6,63.3,22.39,SE,146,5.0,7.0,86,0.00,,---,0.00,VWS V14.00,2013-07-31 05:47:00,
2013-07-31 01:52:00,67.6,63.3,22.39,SE,144,1.0,7.0,86,0.00,,---,0.00,VWS V14.00,2013-07-31 05:52:00,
2013-07-31 01:57:00,67.6,62.9,22.39,ESE,111,5.0,9.0,85,0.00,,---,0.00,VWS V14.00,2013-07-31 05:57:00,
2013-07-31 02:02:00,67.5,62.8,22.39,ESE,114,6.0,9.0,85,0.00,,---,0.00,VWS V14.00,2013-07-31 06:02:00,
2013-07-31 02:07:00,67.6,62.9,22.39,ESE,111,5.0,6.0,85,0.00,,---,0.00,VWS V14.00,2013-07-31 06:07:00,
2013-07-31 02:12:00,67.5,62.8,22.39,ESE,114,5.0,6.0,85,0.00,,---,0.00,VWS V14.00,2013-07-31 06:12:00,
2013-07-31 02:17:00,67.4,62.7,22.39,East,101,5.0,7.0,85,0.00,,---,0.00,VWS V14.00,2013-07-31 06:17:00,
2013-07-31 02:23:00,67.5,63.2,22.39,ESE,113,5.0,7.0,86,0.00,,---,0.00,VWS V14.00,2013-07-31 06:23:00,
2013-07-31 02:28:00,67.4,62.7,22.39,SE,144,3.0,10.0,85,0.00,,---,0.00,VWS V14.00,2013-07-31 06:28:00,
2013-07-31 02:33:00,67.4,62.7,22.39,South,173,7.0,10.0,85,0.00,,---,0.00,VWS V14.00,2013-07-31 06:33:00,
2013-07-31 02:38:00,67.3,62.6,22.39,ESE,109,5.0,6.0,85,0.00,,---,0.00,VWS V14.00,2013-07-31 06:38:00,
2013-07-31 02:43:00,67.5,63.2,22.39,SE,124,3.0,8.0,86,0.00,,---,0.00,VWS V14.00,2013-07-31 06:43:00,
2013-07-31 02:48:00,67.5,63.2,22.39,SE,138,4.0,9.0,86,0.00,,---,0.00,VWS V14.00,2013-07-31 06:48:00,
2013-07-31 02:53:00,67.4,62.7,22.39,SSE,150,5.0,10.0,85,0.00,,---,0.00,VWS V14.00,2013-07-31 06:53:00,
2013-07-31 02:58:00,67.5,63.2,22.39,ESE,115,3.0,10.0,86,0.00,,---,0.00,VWS V14.00,2013-07-31 06:58:00,
2013-07-31 03:04:00,67.4,63.1,22.39,ESE,117,3.0,10.0,86,0.00,,---,0.00,VWS V14.00,2013-07-31 07:04:00,
2013-07-31 03:09:00,67.5,63.2,22.39,ESE,121,2.0,5.0,86,0.00,,---,0.00,VWS V14.00,2013-07-31 07:09:00,
2013-07-31 03:14:00,67.4,63.1,22.39,SE,127,4.0,6.0,86,0.00,,---,0.00,VWS V14.00,2013-07-31 07:14:00,
2013-07-31 03:19:00,67.7,63.7,22.39,ESE,114,3.0,7.0,87,0.00,,---,0.00,VWS V14.00,2013-07-31 07:19:00,
2013-07-31 03:24:00,67.4,63.1,22.39,ESE,110,4.0,7.0,86,0.00,,---,0.00,VWS V14.00,2013-07-31 07:24:00,
2013-07-31 03:29:00,67.3,63.0,22.39,ESE,113,5.0,7.0,86,0.00,,---,0.00,VWS V14.00,2013-07-31 07:29:00,
2013-07-31 03:34:00,67.3,63.0,22.39,ESE,113,2.0,7.0,86,0.00,,---,0.00,VWS V14.00,2013-07-31 07:34:00,
2013-07-31 03:39:00,67.3,63.0,22.39,ESE,107,4.0,5.0,86,0.00,,---,0.00,VWS V14.00,2013-07-31 07:39:00,
2013-07-31 03:45:00,67.2,62.9,22.39,ESE,108,2.0,6.0,86,0.00,,---,0.00,VWS V14.00,2013-07-31 07:45:00,
2013-07-31 03:50:00,67.2,62.9,22.39,ESE,120,5.0,7.0,86,0.00,,---,0.00,VWS V14.00,2013-07-31 07:50:00,
2013-07-31 03:55:00,67.3,63.3,22.39,ESE,115,5.0,7.0,87,0.00,,---,0.00,VWS V14.00,2013-07-31 07:55:00,
2013-07-31 04:00:00,67.2,62.9,22.39,ESE,117,4.0,7.0,86,0.00,,---,0.00,VWS V14.00,2013-07-31 08:00:00,
2013-07-31 04:05:00,67.2,63.2,22.39,ESE,116,3.0,7.0,87,0.00,,---,0.00,VWS V14.00,2013-07-31 08:05:00,
2013-07-31 04:10:00,67.3,63.3,22.39,SE,131,4.0,5.0,87,0.00,,---,0.00,VWS V14.00,2013-07-31 08:10:00,
2013-07-31 04:15:00,67.3,63.3,22.39,ESE,123,4.0,5.0,87,0.00,,---,0.00,VWS V14.00,2013-07-31 08:15:00,
2013-07-31 04:20:00,67.6,63.6,22.39,ESE,120,3.0,7.0,87,0.00,,---,0.00,VWS V14.00,2013-07-31 08:20:00,
2013-07-31 04:26:00,67.4,63.4,22.39,ESE,120,3.0,7.0,87,0.00,,---,0.00,VWS V14.00,2013-07-31 08:26:00,
2013-07-31 04:31:00,67.4,63.4,22.39,ESE,123,4.0,7.0,87,0.00,,---,0.00,VWS V14.00,2013-07-31 08:31:00,
2013-07-31 04:36:00,67.3,63.0,22.39,ESE,117,0.0,7.0,86,0.00,,---,0.00,VWS V14.00,2013-07-31 08:36:00,
2013-07-31 04:41:00,67.3,63.0,22.39,SE,128,2.0,6.0,86,0.00,,---,0.00,VWS V14.00,2013-07-31 08:41:00,
2013-07-31 04:46:00,67.4,63.4,22.39,ESE,114,3.0,6.0,87,0.00,,---,0.00,VWS V14.00,2013-07-31 08:46:00,
2013-07-31 04:51:00,67.3,63.3,22.39,ESE,118,4.0,6.0,87,0.00,,---,0.00,VWS V14.00,2013-07-31 08:51:00,
2013-07-31 04:56:00,67.3,63.3,22.39,ESE,117,3.0,10.0,87,0.00,,---,0.00,VWS V14.00,2013-07-31 08:56:00,
2013-07-31 05:02:00,67.2,63.2,22.39,ESE,119,3.0,10.0,87,0.00,,---,0.00,VWS V14.00,2013-07-31 09:02:00,
2013-07-31 05:07:00,67.2,63.2,22.39,ESE,114,3.0,10.0,87,0.00,,---,0.00,VWS V14.00,2013-07-31 09:07:00,
2013-07-31 05:12:00,67.2,63.2,22.39,ESE,107,3.0,5.0,87,0.00,,---,0.00,VWS V14.00,2013-07-31 09:12:00,
2013-07-31 05:17:00,67.1,63.1,22.39,ESE,106,4.0,5.0,87,0.00,,---,0.00,VWS V14.00,2013-07-31 09:17:00,
2013-07-31 05:22:00,67.1,63.1,22.39,ESE,106,4.0,6.0,87,0.00,,---,0.00,VWS V14.00,2013-07-31 09:22:00,
2013-07-31 05:27:00,67.1,63.1,22.39,ESE,109,3.0,7.0,87,0.00,,---,0.00,VWS V14.00,2013-07-31 09:27:00,
2013-07-31 05:33:00,67.0,63.0,22.39,ESE,109,4.0,7.0,87,0.00,,---,0.00,VWS V14.00,2013-07-31 09:33:00,
2013-07-31 05:38:00,67.0,63.0,22.39,ESE,115,5.0,5.0,87,0.00,,---,0.00,VWS V14.00,2013-07-31 09:38:00,
2013-07-31 05:43:00,67.3,63.6,22.39,ESE,115,3.0,5.0,88,0.00,,---,0.00,VWS V14.00,2013-07-31 09:43:00,
2013-07-31 05:48:00,67.1,63.1,22.39,East,82,4.0,6.0,87,0.00,,---,0.00,VWS V14.00,2013-07-31 09:48:00,
2013-07-31 05:53:00,67.0,63.0,22.39,East,87,4.0,6.0,87,0.00,,---,0.00,VWS V14.00,2013-07-31 09:53:00,
2013-07-31 05:58:00,67.0,63.0,22.39,East,95,2.0,6.0,87,0.00,,---,0.00,VWS V14.00,2013-07-31 09:58:00,
2013-07-31 06:03:00,67.0,63.0,22.39,ESE,109,3.0,6.0,87,0.00,,---,0.00,VWS V14.00,2013-07-31 10:03:00,
2013-07-31 06:09:00,66.9,62.9,22.39,ESE,111,0.0,5.0,87,0.00,,---,0.00,VWS V14.00,2013-07-31 10:09:00,
2013-07-31 06:14:00,67.0,63.0,22.39,SSE,163,1.0,5.0,87,0.00,,---,0.00,VWS V14.00,2013-07-31 10:14:00,
2013-07-31 06:19:00,67.1,63.4,27.38,SSE,161,1.0,5.0,88,0.00,,---,0.00,VWS V14.00,2013-07-31 10:19:00,
2013-07-31 06:24:00,67.0,63.0,27.38,SE,132,3.0,6.0,87,0.00,,---,0.00,VWS V14.00,2013-07-31 10:24:00,
2013-07-31 06:29:00,67.1,63.4,27.38,SE,132,1.0,6.0,88,0.00,,---,0.00,VWS V14.00,2013-07-31 10:29:00,
2013-07-31 06:34:00,67.3,63.6,27.38,SE,127,0.0,6.0,88,0.00,,---,0.00,VWS V14.00,2013-07-31 10:34:00,
2013-07-31 06:39:00,67.4,63.7,27.38,SE,142,2.0,6.0,88,0.00,,---,0.00,VWS V14.00,2013-07-31 10:39:00,
2013-07-31 06:44:00,67.5,63.8,27.38,SE,145,2.0,7.0,88,0.00,,---,0.00,VWS V14.00,2013-07-31 10:44:00,
2013-07-31 06:50:00,67.6,63.9,27.38,SE,132,6.0,7.0,88,0.00,,---,0.00,VWS V14.00,2013-07-31 10:50:00,
2013-07-31 06:55:00,67.4,63.4,27.38,SE,134,3.0,9.0,87,0.00,,---,0.00,VWS V14.00,2013-07-31 10:55:00,
2013-07-31 07:00:00,67.4,63.7,27.38,ESE,121,3.0,9.0,88,0.00,,---,0.00,VWS V14.00,2013-07-31 11:00:00,
2013-07-31 07:05:00,67.5,63.8,27.38,SE,134,1.0,9.0,88,0.00,,---,0.00,VWS V14.00,2013-07-31 11:05:00,
2013-07-31 07:10:00,67.5,63.8,27.38,SE,124,1.0,4.0,88,0.00,,---,0.00,VWS V14.00,2013-07-31 11:10:00,
2013-07-31 07:15:00,67.5,63.8,27.38,ESE,122,4.0,6.0,88,0.00,,---,0.00,VWS V14.00,2013-07-31 11:15:00,
2013-07-31 07:20:00,67.4,63.7,27.38,ESE,119,6.0,7.0,88,0.00,,---,0.00,VWS V14.00,2013-07-31 11:20:00,
2013-07-31 07:26:00,67.4,63.7,27.38,ESE,119,3.0,7.0,88,0.00,,---,0.00,VWS V14.00,2013-07-31 11:26:00,
2013-07-31 07:31:00,67.5,63.8,27.38,SE,131,6.0,7.0,88,0.00,,---,0.00,VWS V14.00,2013-07-31 11:31:00,
2013-07-31 07:36:00,67.5,63.8,27.38,SSE,147,6.0,9.0,88,0.00,,---,0.00,VWS V14.00,2013-07-31 11:36:00,
2013-07-31 07:41:00,67.6,63.9,27.38,SE,144,7.0,10.0,88,0.00,,---,0.00,VWS V14.00,2013-07-31 11:41:00,
2013-07-31 07:47:00,67.6,63.9,27.38,SE,144,5.0,10.0,88,0.00,,---,0.00,VWS V14.00,2013-07-31 11:47:00,
2013-07-31 07:52:00,67.6,63.9,27.38,SE,146,3.0,10.0,88,0.00,,---,0.00,VWS V14.00,2013-07-31 11:52:00,
2013-07-31 07:57:00,67.5,63.8,27.38,SSE,150,4.0,10.0,88,0.00,,---,0.00,VWS V14.00,2013-07-31 11:57:00,
2013-07-31 08:02:00,67.6,63.9,27.38,South,169,4.0,10.0,88,0.00,,---,0.00,VWS V14.00,2013-07-31 12:02:00,
2013-07-31 08:07:00,67.6,63.9,27.38,SSE,167,6.0,7.0,88,0.00,,---,0.00,VWS V14.00,2013-07-31 12:07:00,
2013-07-31 08:12:00,67.5,63.8,27.38,SSE,153,6.0,11.0,88,0.00,,---,0.00,VWS V14.00,2013-07-31 12:12:00,
2013-07-31 08:17:00,67.5,63.8,27.38,SSE,155,4.0,11.0,88,0.00,,---,0.00,VWS V14.00,2013-07-31 12:17:00,
2013-07-31 08:22:00,67.6,63.9,27.38,SSE,161,6.0,11.0,88,0.00,,---,0.00,VWS V14.00,2013-07-31 12:22:00,
2013-07-31 08:27:00,67.7,64.0,27.38,SE,145,5.0,11.0,88,0.00,,---,0.00,VWS V14.00,2013-07-31 12:27:00,
2013-07-31 08:33:00,67.8,64.1,27.38,SE,141,8.0,11.0,88,0.00,,---,0.00,VWS V14.00,2013-07-31 12:33:00,
2013-07-31 08:38:00,67.7,64.0,27.38,SE,143,5.0,7.0,88,0.00,,---,0.00,VWS V14.00,2013-07-31 12:38:00,
2013-07-31 08:43:00,68.0,64.3,27.38,SE,146,5.0,7.0,88,0.00,,---,0.00,VWS V14.00,2013-07-31 12:43:00,
2013-07-31 08:48:00,68.1,64.7,27.38,SSE,158,3.0,7.0,89,0.00,,---,0.00,VWS V14.00,2013-07-31 12:48:00,
2013-07-31 08:53:00,68.1,64.4,27.38,South,171,4.0,7.0,88,0.00,,---,0.00,VWS V14.00,2013-07-31 12:53:00,
2013-07-31 08:58:00,68.3,64.6,27.38,South,169,3.0,7.0,88,0.00,,---,0.00,VWS V14.00,2013-07-31 12:58:00,
2013-07-31 09:03:00,68.4,64.7,27.38,SSE,153,5.0,7.0,88,0.00,,---,0.00,VWS V14.00,2013-07-31 13:03:00,
2013-07-31 09:09:00,68.5,64.8,27.38,SE,142,7.0,7.0,88,0.00,,---,0.00,VWS V14.00,2013-07-31 13:09:00,
2013-07-31 09:14:00,68.6,64.9,27.38,SSE,148,6.0,7.0,88,0.00,,---,0.00,VWS V14.00,2013-07-31 13:14:00,
2013-07-31 09:19:00,68.6,64.6,27.38,SSE,161,4.0,10.0,87,0.00,,---,0.00,VWS V14.00,2013-07-31 13:19:00,
2013-07-31 09:24:00,68.7,65.0,27.38,SSE,163,4.0,10.0,88,0.00,,---,0.00,VWS V14.00,2013-07-31 13:24:00,
2013-07-31 09:29:00,68.7,64.7,27.38,SSE,159,4.0,10.0,87,0.00,,---,0.00,VWS V14.00,2013-07-31 13:29:00,
2013-07-31 09:34:00,68.8,64.8,27.38,South,171,6.0,10.0,87,0.00,,---,0.00,VWS V14.00,2013-07-31 13:34:00,
2013-07-31 09:39:00,68.9,64.9,27.38,SSE,163,4.0,8.0,87,0.00,,---,0.00,VWS V14.00,2013-07-31 13:39:00,
2013-07-31 09:44:00,69.0,65.0,27.38,SSE,163,4.0,8.0,87,0.00,,---,0.00,VWS V14.00,2013-07-31 13:44:00,
2013-07-31 09:50:00,69.0,65.0,27.38,SSE,163,3.0,8.0,87,0.00,,---,0.00,VWS V14.00,2013-07-31 13:50:00,
2013-07-31 09:55:00,69.1,65.1,27.38,SSE,157,6.0,8.0,87,0.00,,---,0.00,VWS V14.00,2013-07-31 13:55:00,
2013-07-31 10:00:00,69.1,65.1,27.38,SSE,154,9.0,10.0,87,0.00,,---,0.01,VWS V14.00,2013-07-31 14:00:00,
2013-07-31 10:05:00,69.1,65.1,27.38,SSE,161,5.0,10.0,87,0.00,,---,0.01,VWS V14.00,2013-07-31 14:05:00,
2013-07-31 10:10:00,69.2,65.2,27.38,SSE,157,5.0,10.0,87,0.00,,---,0.01,VWS V14.00,2013-07-31 14:10:00,
2013-07-31 10:15:00,69.4,65.4,27.38,SSE,147,9.0,10.0,87,0.00,,---,0.01,VWS V14.00,2013-07-31 14:15:00,
2013-07-31 10:20:00,69.4,65.4,27.38,SSE,152,5.0,10.0,87,0.00,,---,0.01,VWS V14.00,2013-07-31 14:20:00,
2013-07-31 10:25:00,69.4,65.4,27.38,SSE,161,6.0,10.0,87,0.00,,---,0.01,VWS V14.00,2013-07-31 14:25:00,
2013-07-31 10:30:00,69.5,65.5,27.38,SSE,164,9.0,10.0,87,0.00,,---,0.01,VWS V14.00,2013-07-31 14:30:00,
2013-07-31 10:35:00,69.7,65.3,27.38,SSE,164,7.0,10.0,86,0.00,,---,0.01,VWS V14.00,2013-07-31 14:35:00,
2013-07-31 10:40:00,69.8,65.4,27.38,South,172,6.0,11.0,86,0.00,,---,0.01,VWS V14.00,2013-07-31 14:40:00,
2013-07-31 10:46:00,70.0,65.6,27.38,South,175,7.0,12.0,86,0.00,,---,0.01,VWS V14.00,2013-07-31 14:46:00,
2013-07-31 10:51:00,70.2,65.8,27.38,SSE,164,10.0,12.0,86,0.00,,---,0.01,VWS V14.00,2013-07-31 14:51:00,
2013-07-31 10:56:00,70.3,65.9,27.38,South,179,7.0,12.0,86,0.00,,---,0.01,VWS V14.00,2013-07-31 14:56:00,
2013-07-31 11:01:00,70.4,65.7,27.38,SSE,156,5.0,12.0,85,0.00,,---,0.01,VWS V14.00,2013-07-31 15:01:00,
2013-07-31 11:07:00,70.5,66.1,27.38,SSE,157,6.0,12.0,86,0.00,,---,0.01,VWS V14.00,2013-07-31 15:07:00,
2013-07-31 11:12:00,70.6,66.2,27.38,SSE,158,5.0,6.0,86,0.00,,---,0.01,VWS V14.00,2013-07-31 15:12:00,
2013-07-31 11:17:00,70.8,66.1,27.38,SSE,163,7.0,9.0,85,0.00,,---,0.01,VWS V14.00,2013-07-31 15:17:00,
2013-07-31 11:22:00,70.9,66.2,27.38,SSE,165,6.0,9.0,85,0.00,,---,0.01,VWS V14.00,2013-07-31 15:22:00,
2013-07-31 11:27:00,71.0,65.9,27.38,SSE,167,6.0,9.0,84,0.00,,---,0.01,VWS V14.00,2013-07-31 15:27:00,
2013-07-31 11:33:00,71.0,65.9,27.38,SSE,164,3.0,9.0,84,0.00,,---,0.01,VWS V14.00,2013-07-31 15:33:00,
2013-07-31 11:38:00,71.1,66.0,27.38,South,186,5.0,6.0,84,0.00,,---,0.01,VWS V14.00,2013-07-31 15:38:00,
2013-07-31 11:43:00,71.2,66.5,27.38,South,187,0.0,6.0,85,0.00,,---,0.01,VWS V14.00,2013-07-31 15:43:00,
2013-07-31 11:48:00,71.3,66.2,27.38,SSE,166,0.0,7.0,84,0.00,,---,0.01,VWS V14.00,2013-07-31 15:48:00,
2013-07-31 11:53:00,71.5,66.8,27.38,SSE,166,3.0,7.0,85,0.00,,---,0.01,VWS V14.00,2013-07-31 15:53:00,
2013-07-31 11:58:00,71.5,66.4,27.38,SSE,167,3.0,7.0,84,0.00,,---,0.01,VWS V14.00,2013-07-31 15:58:00,
2013-07-31 12:03:00,71.5,66.4,27.38,South,173,3.0,7.0,84,0.00,,---,0.01,VWS V14.00,2013-07-31 16:03:00,
2013-07-31 12:08:00,71.7,66.6,27.38,SSE,165,3.0,6.0,84,0.00,,---,0.01,VWS V14.00,2013-07-31 16:08:00,
2013-07-31 12:14:00,71.7,66.3,27.38,SSE,167,4.0,7.0,83,0.00,,---,0.01,VWS V14.00,2013-07-31 16:14:00,
2013-07-31 12:19:00,71.7,66.6,27.38,South,170,4.0,7.0,84,0.00,,---,0.01,VWS V14.00,2013-07-31 16:19:00,
2013-07-31 12:24:00,71.9,66.5,27.38,SSW,200,5.0,7.0,83,0.00,,---,0.01,VWS V14.00,2013-07-31 16:24:00,
2013-07-31 12:29:00,71.9,66.5,27.38,South,176,0.0,7.0,83,0.00,,---,0.01,VWS V14.00,2013-07-31 16:29:00,
2013-07-31 12:34:00,72.1,66.7,27.38,South,185,4.0,7.0,83,0.00,,---,0.01,VWS V14.00,2013-07-31 16:34:00,
2013-07-31 12:39:00,72.3,66.8,27.38,South,185,0.0,1.0,83,0.00,,---,0.01,VWS V14.00,2013-07-31 16:39:00,
2013-07-31 12:45:00,72.2,66.8,27.38,South,183,0.0,6.0,83,0.00,,---,0.01,VWS V14.00,2013-07-31 16:45:00,
2013-07-31 12:50:00,72.2,66.8,27.38,SSW,203,2.0,7.0,83,0.00,,---,0.01,VWS V14.00,2013-07-31 16:50:00,
2013-07-31 12:55:00,72.2,66.8,27.38,South,185,0.0,7.0,83,0.00,,---,0.01,VWS V14.00,2013-07-31 16:55:00,
2013-07-31 13:00:00,72.2,66.8,27.38,SSW,192,4.0,7.0,83,0.00,,---,0.01,VWS V14.00,2013-07-31 17:00:00,
2013-07-31 13:05:00,72.4,66.9,27.38,SSW,192,1.0,7.0,83,0.00,,---,0.01,VWS V14.00,2013-07-31 17:05:00,
2013-07-31 13:10:00,72.4,66.9,27.38,SSW,192,1.0,4.0,83,0.00,,---,0.01,VWS V14.00,2013-07-31 17:10:00,
2013-07-31 13:15:00,72.3,66.8,27.38,South,178,3.0,5.0,83,0.00,,---,0.01,VWS V14.00,2013-07-31 17:15:00,
2013-07-31 13:21:00,72.4,66.9,27.38,South,179,2.0,5.0,83,0.00,,---,0.01,VWS V14.00,2013-07-31 17:21:00,
2013-07-31 13:26:00,72.6,67.2,27.38,SSW,205,0.0,6.0,83,0.00,,---,0.01,VWS V14.00,2013-07-31 17:26:00,
2013-07-31 13:31:00,72.7,66.9,27.38,South,173,3.0,7.0,82,0.00,,---,0.01,VWS V14.00,2013-07-31 17:31:00,
2013-07-31 13:37:00,72.7,66.9,27.38,South,174,3.0,7.0,82,0.00,,---,0.01,VWS V14.00,2013-07-31 17:37:00,
2013-07-31 13:42:00,72.7,66.9,27.38,SSW,206,2.0,6.0,82,0.00,,---,0.01,VWS V14.00,2013-07-31 17:42:00,
2013-07-31 13:47:00,72.5,67.1,27.38,SSW,206,1.0,6.0,83,0.00,,---,0.01,VWS V14.00,2013-07-31 17:47:00,
2013-07-31 13:52:00,72.5,67.1,27.38,SSW,206,2.0,6.0,83,0.00,,---,0.01,VWS V14.00,2013-07-31 17:52:00,
2013-07-31 13:57:00,72.5,67.1,27.38,SSW,206,0.0,6.0,83,0.00,,---,0.01,VWS V14.00,2013-07-31 17:57:00,
2013-07-31 14:02:00,72.4,66.9,27.38,SSW,206,1.0,6.0,83,0.00,,---,0.01,VWS V14.00,2013-07-31 18:02:00,
2013-07-31 14:08:00,72.4,67.3,27.38,SSW,206,3.0,4.0,84,0.00,,---,0.01,VWS V14.00,2013-07-31 18:08:00,
2013-07-31 14:13:00,72.4,66.9,27.38,SSE,157,2.0,6.0,83,0.00,,---,0.01,VWS V14.00,2013-07-31 18:13:00,
2013-07-31 14:18:00,72.4,66.9,27.38,SSE,157,2.0,6.0,83,0.00,,---,0.01,VWS V14.00,2013-07-31 18:18:00,
2013-07-31 14:23:00,72.5,67.4,27.38,SSE,158,4.0,6.0,84,0.00,,---,0.01,VWS V14.00,2013-07-31 18:23:00,
2013-07-31 14:28:00,72.7,67.6,27.38,SSE,160,3.0,6.0,84,0.00,,---,0.01,VWS V14.00,2013-07-31 18:28:00,
2013-07-31 14:33:00,72.6,67.2,27.38,SSE,165,3.0,9.0,83,0.00,,---,0.01,VWS V14.00,2013-07-31 18:33:00,
2013-07-31 14:38:00,72.7,67.2,27.38,SSE,156,5.0,6.0,83,0.00,,---,0.01,VWS V14.00,2013-07-31 18:38:00,
2013-07-31 14:43:00,72.6,67.2,27.38,SSE,150,3.0,7.0,83,0.00,,---,0.01,VWS V14.00,2013-07-31 18:43:00,
2013-07-31 14:48:00,72.6,67.2,27.38,SSE,163,4.0,7.0,83,0.00,,---,0.01,VWS V14.00,2013-07-31 18:48:00,
2013-07-31 14:54:00,72.6,67.2,27.38,South,176,3.0,10.0,83,0.00,,---,0.01,VWS V14.00,2013-07-31 18:54:00,
2013-07-31 14:59:00,72.7,67.2,26.74,South,179,6.0,10.0,83,0.00,,---,0.01,VWS V14.00,2013-07-31 18:59:00,
2013-07-31 15:04:00,72.6,67.2,26.74,South,169,5.0,10.0,83,0.00,,---,0.01,VWS V14.00,2013-07-31 19:04:00,
2013-07-31 15:09:00,72.5,67.4,26.74,South,186,5.0,9.0,84,0.00,,---,0.01,VWS V14.00,2013-07-31 19:09:00,
2013-07-31 15:14:00,72.4,67.3,26.74,South,186,4.0,10.0,84,0.00,,---,0.01,VWS V14.00,2013-07-31 19:14:00,
2013-07-31 15:20:00,72.3,67.5,26.74,South,178,4.0,10.0,85,0.00,,---,0.01,VWS V14.00,2013-07-31 19:20:00,
2013-07-31 15:25:00,72.2,67.4,26.74,South,191,0.0,10.0,85,0.00,,---,0.01,VWS V14.00,2013-07-31 19:25:00,
2013-07-31 15:30:00,72.1,67.3,26.74,South,188,3.0,10.0,85,0.00,,---,0.01,VWS V14.00,2013-07-31 19:30:00,
2013-07-31 15:35:00,72.0,67.2,26.74,South,182,5.0,10.0,85,0.00,,---,0.01,VWS V14.00,2013-07-31 19:35:00,
2013-07-31 15:40:00,71.9,67.5,26.74,South,169,6.0,7.0,86,0.00,,---,0.01,VWS V14.00,2013-07-31 19:40:00,
2013-07-31 15:45:00,71.8,67.4,26.74,South,175,3.0,7.0,86,0.00,,---,0.01,VWS V14.00,2013-07-31 19:45:00,
2013-07-31 15:50:00,71.8,67.7,26.74,South,169,2.0,7.0,87,0.00,,---,0.01,VWS V14.00,2013-07-31 19:50:00,
2013-07-31 15:56:00,71.9,67.8,26.74,South,169,1.0,7.0,87,0.00,,---,0.01,VWS V14.00,2013-07-31 19:56:00,
2013-07-31 16:01:00,72.2,68.1,26.74,South,169,3.0,7.0,87,0.00,,---,0.01,VWS V14.00,2013-07-31 20:01:00,
2013-07-31 16:07:00,72.2,68.1,26.74,SSE,167,1.0,7.0,87,0.00,,---,0.01,VWS V14.00,2013-07-31 20:07:00,
2013-07-31 16:12:00,72.2,67.8,26.74,SSE,164,5.0,7.0,86,0.00,,---,0.01,VWS V14.00,2013-07-31 20:12:00,
2013-07-31 16:17:00,72.3,67.9,26.74,SSE,165,4.0,7.0,86,0.00,,---,0.01,VWS V14.00,2013-07-31 20:17:00,
2013-07-31 16:22:00,72.3,67.9,26.74,SSE,167,4.0,9.0,86,0.00,,---,0.01,VWS V14.00,2013-07-31 20:22:00,
2013-07-31 16:28:00,72.2,67.8,26.74,SSE,167,4.0,9.0,86,0.00,,---,0.01,VWS V14.00,2013-07-31 20:28:00,
2013-07-31 16:33:00,72.2,67.8,26.74,SSE,162,4.0,9.0,86,0.00,,---,0.01,VWS V14.00,2013-07-31 20:33:00,
2013-07-31 16:38:00,72.3,68.2,26.74,SSE,159,5.0,6.0,87,0.00,,---,0.01,VWS V14.00,2013-07-31 20:38:00,
2013-07-31 16:43:00,72.4,68.0,26.74,SSE,152,4.0,7.0,86,0.00,,---,0.01,VWS V14.00,2013-07-31 20:43:00,
2013-07-31 16:48:00,72.5,68.4,26.74,South,173,6.0,9.0,87,0.00,,---,0.01,VWS V14.00,2013-07-31 20:48:00,
2013-07-31 16:53:00,72.5,68.1,26.74,SSE,163,3.0,9.0,86,0.00,,---,0.01,VWS V14.00,2013-07-31 20:53:00,
2013-07-31 16:58:00,72.6,68.2,26.74,SSE,163,0.0,9.0,86,0.00,,---,0.01,VWS V14.00,2013-07-31 20:58:00,
2013-07-31 17:04:00,72.8,68.4,26.74,SSE,163,0.0,9.0,86,0.00,,---,0.01,VWS V14.00,2013-07-31 21:04:00,
2013-07-31 17:09:00,72.9,68.5,26.74,SSE,163,3.0,4.0,86,0.00,,---,0.01,VWS V14.00,2013-07-31 21:09:00,
2013-07-31 17:14:00,72.9,68.1,26.74,SSE,163,0.0,4.0,85,0.00,,---,0.01,VWS V14.00,2013-07-31 21:14:00,
2013-07-31 17:19:00,72.8,68.0,26.74,SSE,165,0.0,5.0,85,0.00,,---,0.01,VWS V14.00,2013-07-31 21:19:00,
2013-07-31 17:24:00,72.9,68.5,26.74,SSE,161,4.0,5.0,86,0.00,,---,0.01,VWS V14.00,2013-07-31 21:24:00,
2013-07-31 17:29:00,72.9,68.1,26.74,SSE,164,0.0,5.0,85,0.00,,---,0.01,VWS V14.00,2013-07-31 21:29:00,
2013-07-31 17:34:00,73.1,68.7,26.74,SSE,164,0.0,5.0,86,0.00,,---,0.01,VWS V14.00,2013-07-31 21:34:00,
2013-07-31 17:39:00,73.1,68.3,26.74,SSE,163,3.0,4.0,85,0.00,,---,0.01,VWS V14.00,2013-07-31 21:39:00,
2013-07-31 17:44:00,73.2,68.4,26.74,SSE,165,1.0,6.0,85,0.00,,---,0.01,VWS V14.00,2013-07-31 21:44:00,
2013-07-31 17:50:00,73.3,68.5,26.74,SSE,153,4.0,6.0,85,0.00,,---,0.01,VWS V14.00,2013-07-31 21:50:00,
2013-07-31 17:55:00,73.4,68.6,26.74,SSE,152,4.0,7.0,85,0.00,,---,0.01,VWS V14.00,2013-07-31 21:55:00,
2013-07-31 18:00:00,73.4,68.3,26.74,SSE,150,5.0,7.0,84,0.00,,---,0.01,VWS V14.00,2013-07-31 22:00:00,
2013-07-31 18:05:00,73.6,68.5,26.74,SSE,155,7.0,7.0,84,0.00,,---,0.01,VWS V14.00,2013-07-31 22:05:00,
2013-07-31 18:10:00,73.7,68.6,26.74,SSE,156,5.0,6.0,84,0.00,,---,0.01,VWS V14.00,2013-07-31 22:10:00,
2013-07-31 18:15:00,73.6,68.5,26.74,SSE,152,5.0,6.0,84,0.00,,---,0.01,VWS V14.00,2013-07-31 22:15:00,
2013-07-31 18:21:00,73.7,68.6,26.74,SSE,167,5.0,6.0,84,0.00,,---,0.01,VWS V14.00,2013-07-31 22:21:00,
2013-07-31 18:26:00,73.7,68.6,26.74,SSE,163,5.0,6.0,84,0.00,,---,0.01,VWS V14.00,2013-07-31 22:26:00,
2013-07-31 18:32:00,73.8,68.7,26.74,SSE,163,4.0,6.0,84,0.00,,---,0.01,VWS V14.00,2013-07-31 22:32:00,
2013-07-31 18:37:00,73.8,68.7,26.74,SSE,162,0.0,6.0,84,0.00,,---,0.01,VWS V14.00,2013-07-31 22:37:00,
2013-07-31 18:42:00,73.8,69.0,26.74,SSE,161,2.0,4.0,85,0.00,,---,0.01,VWS V14.00,2013-07-31 22:42:00,
2013-07-31 18:47:00,73.9,68.8,26.74,SSE,161,0.0,4.0,84,0.00,,---,0.01,VWS V14.00,2013-07-31 22:47:00,
2013-07-31 18:52:00,74.1,69.0,26.74,SSE,161,2.0,4.0,84,0.00,,---,0.01,VWS V14.00,2013-07-31 22:52:00,
2013-07-31 18:57:00,74.1,69.0,26.74,SSE,161,3.0,4.0,84,0.00,,---,0.01,VWS V14.00,2013-07-31 22:57:00,
2013-07-31 19:03:00,74.1,69.0,26.74,SSE,161,0.0,4.0,84,0.00,,---,0.01,VWS V14.00,2013-07-31 23:03:00,
2013-07-31 19:08:00,74.1,69.0,26.74,SSE,161,3.0,4.0,84,0.00,,---,0.01,VWS V14.00,2013-07-31 23:08:00,
2013-07-31 19:13:00,74.1,69.0,26.74,SSE,162,2.0,4.0,84,0.00,,---,0.01,VWS V14.00,2013-07-31 23:13:00,
2013-07-31 19:18:00,74.2,69.1,24.82,SSE,161,0.0,4.0,84,0.00,,---,0.01,VWS V14.00,2013-07-31 23:18:00,
2013-07-31 19:23:00,74.4,68.9,24.82,SSE,161,0.0,4.0,83,0.00,,---,0.01,VWS V14.00,2013-07-31 23:23:00,
2013-07-31 19:28:00,74.6,69.1,24.82,SSE,162,0.0,4.0,83,0.00,,---,0.01,VWS V14.00,2013-07-31 23:28:00,
2013-07-31 19:34:00,74.7,69.2,24.82,SSE,162,0.0,4.0,83,0.00,,---,0.01,VWS V14.00,2013-07-31 23:34:00,
2013-07-31 19:39:00,74.8,69.3,24.82,SSE,162,0.0,0.0,83,0.00,,---,0.01,VWS V14.00,2013-07-31 23:39:00,
2013-07-31 19:44:00,74.9,69.0,24.82,SSE,161,0.0,0.0,82,0.00,,---,0.01,VWS V14.00,2013-07-31 23:44:00,
2013-07-31 19:49:00,75.1,69.2,24.82,SSE,161,0.0,1.0,82,0.00,,---,0.01,VWS V14.00,2013-07-31 23:49:00,
2013-07-31 19:54:00,75.1,69.6,24.82,SSE,161,1.0,2.0,83,0.00,,---,0.01,VWS V14.00,2013-07-31 23:54:00,
2013-07-31 19:59:00,74.9,69.4,24.82,SSE,162,0.0,3.0,83,0.00,,---,0.01,VWS V14.00,2013-07-31 23:59:00,
2013-07-31 20:04:00,74.7,69.2,24.82,SSE,162,0.0,3.0,83,0.00,,---,0.01,VWS V14.00,2013-08-01 00:04:00,
2013-07-31 20:10:00,74.5,69.0,24.82,SSE,161,0.0,2.0,83,0.00,,---,0.01,VWS V14.00,2013-08-01 00:10:00,
2013-07-31 20:15:00,74.2,69.1,24.82,SSE,161,0.0,2.0,84,0.00,,---,0.01,VWS V14.00,2013-08-01 00:15:00,
2013-07-31 20:20:00,74.0,68.9,24.82,SSE,161,0.0,3.0,84,0.00,,---,0.01,VWS V14.00,2013-08-01 00:20:00,
2013-07-31 20:25:00,73.7,68.9,24.82,SSE,162,0.0,3.0,85,0.00,,---,0.01,VWS V14.00,2013-08-01 00:25:00,
2013-07-31 20:30:00,73.4,68.6,24.82,SSE,162,0.0,3.0,85,0.00,,---,0.01,VWS V14.00,2013-08-01 00:30:00,
2013-07-31 20:36:00,73.1,68.3,24.82,SSE,161,0.0,3.0,85,0.00,,---,0.01,VWS V14.00,2013-08-01 00:36:00,
2013-07-31 20:41:00,73.0,68.6,24.82,SSE,161,0.0,0.0,86,0.00,,---,0.01,VWS V14.00,2013-08-01 00:41:00,
2013-07-31 20:46:00,72.8,68.4,24.82,SSE,162,0.0,0.0,86,0.00,,---,0.01,VWS V14.00,2013-08-01 00:46:00,
2013-07-31 20:51:00,72.7,68.3,24.82,SSE,162,0.0,0.0,86,0.00,,---,0.01,VWS V14.00,2013-08-01 00:51:00,
2013-07-31 20:57:00,72.6,68.5,24.71,SSE,162,0.0,0.0,87,0.00,,---,0.01,VWS V14.00,2013-08-01 00:57:00,
2013-07-31 21:02:00,72.6,68.5,24.71,SSE,161,0.0,0.0,87,0.00,,---,0.01,VWS V14.00,2013-08-01 01:02:00,
2013-07-31 21:07:00,72.6,68.5,24.71,SSE,162,0.0,0.0,87,0.00,,---,0.01,VWS V14.00,2013-08-01 01:07:00,
2013-07-31 21:12:00,72.6,68.5,24.71,SSE,163,0.0,4.0,87,0.00,,---,0.01,VWS V14.00,2013-08-01 01:12:00,
2013-07-31 21:17:00,72.6,68.5,24.71,SSE,163,0.0,4.0,87,0.00,,---,0.01,VWS V14.00,2013-08-01 01:17:00,
2013-07-31 21:22:00,72.6,68.5,24.71,SSE,163,2.0,4.0,87,0.00,,---,0.01,VWS V14.00,2013-08-01 01:22:00,
2013-07-31 21:27:00,72.6,68.5,24.71,SSE,163,0.0,4.0,87,0.00,,---,0.01,VWS V14.00,2013-08-01 01:27:00,
2013-07-31 21:32:00,72.5,68.4,24.71,SSE,163,0.0,4.0,87,0.00,,---,0.01,VWS V14.00,2013-08-01 01:32:00,
2013-07-31 21:37:00,72.4,68.3,24.71,SSE,163,0.0,0.0,87,0.00,,---,0.01,VWS V14.00,2013-08-01 01:37:00,
2013-07-31 21:43:00,72.4,68.3,24.71,SSE,163,0.0,3.0,87,0.00,,---,0.01,VWS V14.00,2013-08-01 01:43:00,
2013-07-31 21:48:00,72.4,68.3,24.71,SSE,163,0.0,3.0,87,0.00,,---,0.01,VWS V14.00,2013-08-01 01:48:00,
2013-07-31 21:53:00,72.3,68.2,24.71,SSE,163,0.0,3.0,87,0.00,,---,0.01,VWS V14.00,2013-08-01 01:53:00,
2013-07-31 21:58:00,72.2,68.4,24.71,SSE,163,0.0,3.0,88,0.00,,---,0.01,VWS V14.00,2013-08-01 01:58:00,
2013-07-31 22:03:00,72.2,68.4,29.40,SSE,163,0.0,3.0,88,0.00,,---,0.01,VWS V14.00,2013-08-01 02:03:00,
2013-07-31 22:09:00,72.2,68.4,29.40,SSE,163,0.0,1.0,88,0.00,,---,0.01,VWS V14.00,2013-08-01 02:09:00,
2013-07-31 22:14:00,72.1,68.3,29.40,SSE,163,0.0,3.0,88,0.00,,---,0.01,VWS V14.00,2013-08-01 02:14:00,
2013-07-31 22:19:00,72.0,68.3,29.40,SSE,163,0.0,3.0,88,0.00,,---,0.01,VWS V14.00,2013-08-01 02:19:00,
2013-07-31 22:24:00,71.9,68.2,29.40,SSE,163,0.0,3.0,88,0.00,,---,0.01,VWS V14.00,2013-08-01 02:24:00,
2013-07-31 22:29:00,71.9,68.5,29.40,SSE,163,0.0,3.0,89,0.00,,---,0.01,VWS V14.00,2013-08-01 02:29:00,
2013-07-31 22:34:00,71.9,68.5,29.40,SSE,163,0.0,3.0,89,0.00,,---,0.01,VWS V14.00,2013-08-01 02:34:00,
2013-07-31 22:39:00,71.9,68.5,29.40,SSE,163,0.0,0.0,89,0.00,,---,0.01,VWS V14.00,2013-08-01 02:39:00,
2013-07-31 22:44:00,71.9,68.5,29.40,SSE,163,0.0,2.0,89,0.00,,---,0.01,VWS V14.00,2013-08-01 02:44:00,
2013-07-31 22:50:00,71.9,68.5,29.40,SSE,163,0.0,3.0,89,0.00,,---,0.01,VWS V14.00,2013-08-01 02:50:00,
2013-07-31 22:55:00,72.0,68.6,29.40,SSE,163,0.0,3.0,89,0.00,,---,0.01,VWS V14.00,2013-08-01 02:55:00,
2013-07-31 23:00:00,72.1,68.3,29.40,SSE,163,0.0,3.0,88,0.00,,---,0.01,VWS V14.00,2013-08-01 03:00:00,
2013-07-31 23:05:00,72.1,68.3,29.40,SSE,163,2.0,3.0,88,0.00,,---,0.01,VWS V14.00,2013-08-01 03:05:00,
2013-07-31 23:10:00,72.1,68.3,29.40,SSE,163,2.0,2.0,88,0.00,,---,0.01,VWS V14.00,2013-08-01 03:10:00,
2013-07-31 23:15:00,72.2,68.4,29.40,SSE,167,0.0,5.0,88,0.00,,---,0.01,VWS V14.00,2013-08-01 03:15:00,
2013-07-31 23:20:00,72.2,68.4,29.40,South,171,0.0,5.0,88,0.00,,---,0.01,VWS V14.00,2013-08-01 03:20:00,
2013-07-31 23:25:00,72.2,68.4,29.40,South,171,2.0,5.0,88,0.00,,---,0.01,VWS V14.00,2013-08-01 03:25:00,
2013-07-31 23:31:00,72.3,68.6,29.40,SW,225,0.0,5.0,88,0.00,,---,0.01,VWS V14.00,2013-08-01 03:31:00,
2013-07-31 23:36:00,72.2,68.4,29.40,SW,225,0.0,5.0,88,0.00,,---,0.01,VWS V14.00,2013-08-01 03:36:00,
2013-07-31 23:41:00,72.2,68.4,29.40,SW,225,2.0,2.0,88,0.00,,---,0.01,VWS V14.00,2013-08-01 03:41:00,
2013-07-31 23:46:00,72.1,68.3,29.40,SW,222,2.0,3.0,88,0.00,,---,0.01,VWS V14.00,2013-08-01 03:46:00,
2013-07-31 23:51:00,72.1,68.3,29.40,SW,221,0.0,4.0,88,0.00,,---,0.01,VWS V14.00,2013-08-01 03:51:00,
2013-07-31 23:56:00,72.1,68.3,29.40,SSW,213,0.0,5.0,88,0.00,,---,0.01,VWS V14.00,2013-08-01 03:56:00,